Airfield :
LOGIN :

Register | Disclaimer

   EN    FR    IT 

 










Legend :    VFR   Marginal VFR   IFR   Intensive IFR   Very Intensive IFR
Visi :
Ceiling :
>= 8 km
>= 3000ft
5 to 8 km
1000 to 3000 ft
1500m to 5 km
500 to 1000 ft
800 to 1500m
200 to 500 ft
< 800m
< 200 ft
Symbols :   Thunderstorms  Fog  Heavy snow  Heavy precipitations  Wind > 20 kt
SIGMETs :     Misc.  Thunderstorms  Icing  Turbulence  Mountain Waves  Volcanic Ashes







- Airport Elevation : 123 ft
- IATA code : BLQ


LIPE - Bologna Guglielmo Marconi

CURRENT METAR :
  • 250920Z 07004KT 040V110 6000 RA BKN006 BKN050 18/17 Q1019

EXPIRED METARs :
  • 250850Z 07006KT 040V100 6000 RA BKN006 BKN040 17/17 Q1019
  • 250820Z 07007KT 6000 RA BKN010 BKN040 17/16 Q1018
  • 250750Z 06008KT 010V110 9999 SCT010 BKN060 18/16 Q1018
  • 250720Z 06004KT 020V100 9999 FEW012 BKN070 18/16 Q1017
  • 250650Z VRB02KT 9999 BKN080 18/15 Q1017

TAF TAF LIPE
Valid from the 25 at 06:00 until the 26 at 06:00 UTC


250500Z 2506/2606 VRB04KT 9999 SCT040
TEMPO 2506/2512 TSRA
BECMG 2509/2511 10010KT
BECMG 2517/2519 VRB05KT
No reported NOTAMs for that airfield.
2 SIGMETs reported for the Milano FIR (LIMM) :
 
Embedded thunderstorms
LIMM SIGMET 6 VALID 250940/251140 LIIP
LIMM MILANO FIR EMBD TS OBS WI N4442 E01251 - N4412 E01130 - N4343 E01213 - N4334 E01402 - N4442 E01251 TOP FL320 MOV SSE WKN=
Severe turbulence
LIMM SIGMET 5 VALID 250900/251300 LIIP
LIMM MILANO FIR SEV TURB FCST E OF LINE N4618 E00851 - N4324 E00830 FL250/330 MOV E NC=



MET'MAP, your aeronautical weather chart ! - Copyright ORBIFLY December 2007 - Disclaimer

ORBIFLY MET'MAP TEAM :

Programming & Development : Alexandra Zaïnal
Concept & Development : Baudouin d'Aumeries
Co-Development & Prog : Marc-Olivier Méhu
Technical & hardware support : Manuel Goepfert

Contact : metmap@orbifly.com




SOURCES & CREDITS :

   NOAA